Time;durP1;ratioP1;P1;durP2;ratioP2;P2;SDS_P1;SDS_P2;PMS_P1;PMS_P2;Temp;Humidity;BMP_temperature;BMP_pressure;BME280_temperature;BME280_humidity;BME280_pressure;Samples;Min_cycle;Max_cycle;Signal;HPM_P1;HPM_P2
2023/12/22 00:00:15;;;;;;;14.73;3.73;;;;;;;;;;5054311;28;20513;-56
2023/12/22 00:02:41;;;;;;;15.20;4.23;;;;;;;;;;5051896;28;20193;-56
2023/12/22 00:05:08;;;;;;;25.00;5.30;;;;;;;;;;5051986;28;20599;-57
2023/12/22 00:07:35;;;;;;;20.53;3.87;;;;;;;;;;5052204;28;20173;-55
2023/12/22 00:10:01;;;;;;;18.60;4.20;;;;;;;;;;5053521;28;20177;-56
2023/12/22 00:12:28;;;;;;;28.47;4.07;;;;;;;;;;5053278;28;20181;-56
2023/12/22 00:14:54;;;;;;;19.67;4.37;;;;;;;;;;5053459;28;20197;-54
2023/12/22 00:17:20;;;;;;;19.23;4.03;;;;;;;;;;5053058;28;20645;-57
2023/12/22 00:19:46;;;;;;;20.40;4.00;;;;;;;;;;5058603;28;20229;-52
2023/12/22 00:22:12;;;;;;;16.97;3.97;;;;;;;;;;5056354;28;20688;-54
2023/12/22 00:24:39;;;;;;;20.03;4.43;;;;;;;;;;5055713;28;20173;-54
2023/12/22 00:27:06;;;;;;;23.83;5.13;;;;;;;;;;5057050;28;20259;-56
2023/12/22 00:29:35;;;;;;;24.27;4.53;;;;;;;;;;5055671;28;20207;-55
2023/12/22 00:32:01;;;;;;;23.80;4.63;;;;;;;;;;5057279;28;20184;-56
2023/12/22 00:34:27;;;;;;;15.57;3.77;;;;;;;;;;5056035;28;20231;-55
2023/12/22 00:36:53;;;;;;;29.87;5.13;;;;;;;;;;5056834;28;20217;-57
2023/12/22 00:39:19;;;;;;;14.20;4.20;;;;;;;;;;5056540;28;20220;-57
2023/12/22 00:41:46;;;;;;;20.83;4.87;;;;;;;;;;5055453;28;20180;-57
2023/12/22 00:44:12;;;;;;;12.33;4.53;;;;;;;;;;5056161;28;20193;-56
2023/12/22 00:46:38;;;;;;;17.83;4.40;;;;;;;;;;5056423;28;20180;-57
2023/12/22 00:49:04;;;;;;;20.10;4.40;;;;;;;;;;5057580;28;20288;-54
2023/12/22 00:51:30;;;;;;;19.40;4.20;;;;;;;;;;5057854;28;20169;-56
2023/12/22 00:53:56;;;;;;;19.73;4.43;;;;;;;;;;5056780;28;20243;-52
2023/12/22 00:56:22;;;;;;;16.73;3.67;;;;;;;;;;5056467;28;20181;-52
2023/12/22 00:58:48;;;;;;;27.67;4.97;;;;;;;;;;5055166;28;20209;-55
2023/12/22 01:01:14;;;;;;;20.40;5.37;;;;;;;;;;5053970;28;20698;-54
2023/12/22 01:03:40;;;;;;;23.63;4.57;;;;;;;;;;5055532;28;20173;-51
2023/12/22 01:06:06;;;;;;;17.23;4.37;;;;;;;;;;5054406;28;20227;-55
2023/12/22 01:08:37;;;;;;;19.40;4.53;;;;;;;;;;5055284;28;20176;-53
2023/12/22 01:11:03;;;;;;;14.70;3.83;;;;;;;;;;5054740;28;20276;-54
2023/12/22 01:13:29;;;;;;;22.77;4.03;;;;;;;;;;5055446;28;20265;-53
2023/12/22 01:15:55;;;;;;;16.10;4.30;;;;;;;;;;5054750;28;20442;-56
2023/12/22 01:18:25;;;;;;;18.50;3.13;;;;;;;;;;5056130;28;20279;-55
2023/12/22 01:20:51;;;;;;;16.93;3.53;;;;;;;;;;5055833;28;20432;-54
2023/12/22 01:23:17;;;;;;;23.13;3.50;;;;;;;;;;5056698;28;20172;-56
2023/12/22 01:25:44;;;;;;;13.77;3.17;;;;;;;;;;5055605;28;20177;-55
2023/12/22 01:28:10;;;;;;;11.57;3.67;;;;;;;;;;5055737;28;20660;-57
2023/12/22 01:30:38;;;;;;;15.43;2.23;;;;;;;;;;5055847;28;20166;-57
2023/12/22 01:33:04;;;;;;;14.43;3.83;;;;;;;;;;5054391;28;20196;-55
2023/12/22 01:35:30;;;;;;;9.87;2.60;;;;;;;;;;5054980;28;20173;-56
2023/12/22 01:37:56;;;;;;;8.67;2.27;;;;;;;;;;5056125;28;20271;-54
2023/12/22 01:40:23;;;;;;;7.03;1.27;;;;;;;;;;5057450;28;20222;-53
2023/12/22 01:42:49;;;;;;;5.43;1.10;;;;;;;;;;5057053;28;20178;-56
2023/12/22 01:45:15;;;;;;;5.53;1.57;;;;;;;;;;5057504;28;20173;-54
2023/12/22 01:47:42;;;;;;;4.03;1.40;;;;;;;;;;5058014;28;20606;-56
2023/12/22 01:50:10;;;;;;;4.00;0.83;;;;;;;;;;5055938;28;20189;-53
2023/12/22 01:52:37;;;;;;;5.63;1.33;;;;;;;;;;5051355;28;20400;-52
2023/12/22 01:55:04;;;;;;;0.83;0.70;;;;;;;;;;5052221;28;20456;-55
2023/12/22 01:57:30;;;;;;;2.33;0.70;;;;;;;;;;5051593;28;20533;-54
2023/12/22 01:59:57;;;;;;;2.77;0.80;;;;;;;;;;5052382;28;20209;-55
2023/12/22 02:02:23;;;;;;;4.00;0.80;;;;;;;;;;5050153;28;20564;-55
2023/12/22 02:04:50;;;;;;;4.90;0.80;;;;;;;;;;5050768;28;20267;-54
2023/12/22 02:07:16;;;;;;;2.00;0.73;;;;;;;;;;5050730;28;20597;-55
2023/12/22 02:09:42;;;;;;;6.00;1.00;;;;;;;;;;5052148;28;20211;-55
2023/12/22 02:12:08;;;;;;;2.50;0.67;;;;;;;;;;5049490;28;20199;-55
2023/12/22 02:14:34;;;;;;;3.47;1.27;;;;;;;;;;5050187;28;20297;-55
2023/12/22 02:17:14;;;;;;;2.77;1.20;;;;;;;;;;5055501;28;20821;-51
2023/12/22 02:19:44;;;;;;;6.17;0.97;;;;;;;;;;5055413;28;20852;-52
2023/12/22 02:22:11;;;;;;;2.57;0.90;;;;;;;;;;5055597;28;20199;-52
2023/12/22 02:24:38;;;;;;;6.77;1.20;;;;;;;;;;5054597;28;20277;-56
2023/12/22 02:27:08;;;;;;;8.13;1.40;;;;;;;;;;5055365;28;20204;-53
2023/12/22 02:29:37;;;;;;;9.40;1.13;;;;;;;;;;5056913;28;20216;-54
2023/12/22 02:32:06;;;;;;;10.27;2.00;;;;;;;;;;5056139;28;20209;-54
2023/12/22 02:34:36;;;;;;;5.67;1.87;;;;;;;;;;5055776;28;20181;-53
2023/12/22 02:37:03;;;;;;;15.87;2.23;;;;;;;;;;5055798;28;20290;-54
2023/12/22 02:39:29;;;;;;;8.70;1.33;;;;;;;;;;5056203;28;20643;-54
2023/12/22 02:41:55;;;;;;;7.67;1.70;;;;;;;;;;5055808;28;20169;-54
2023/12/22 02:44:21;;;;;;;5.27;1.50;;;;;;;;;;5055068;28;20223;-56
2023/12/22 02:46:47;;;;;;;11.63;1.70;;;;;;;;;;5055176;28;20177;-51
2023/12/22 02:49:13;;;;;;;8.10;1.17;;;;;;;;;;5055569;28;20242;-54
2023/12/22 02:51:39;;;;;;;7.13;2.13;;;;;;;;;;5055955;28;20157;-54
2023/12/22 02:54:05;;;;;;;9.80;1.77;;;;;;;;;;5055155;28;20169;-57
2023/12/22 02:56:31;;;;;;;4.33;2.30;;;;;;;;;;5054467;28;20384;-55
2023/12/22 02:58:57;;;;;;;9.73;1.50;;;;;;;;;;5054732;28;20509;-55
2023/12/22 03:01:23;;;;;;;10.87;1.47;;;;;;;;;;5054817;28;20459;-56
2023/12/22 03:03:49;;;;;;;11.63;1.80;;;;;;;;;;5053968;28;20633;-56
2023/12/22 03:06:15;;;;;;;6.83;1.27;;;;;;;;;;5053236;28;20173;-55
2023/12/22 03:08:41;;;;;;;5.03;1.00;;;;;;;;;;5054853;28;20255;-55
2023/12/22 03:11:07;;;;;;;4.87;0.80;;;;;;;;;;5055859;28;20184;-55
2023/12/22 03:13:33;;;;;;;2.03;0.80;;;;;;;;;;5054993;28;20178;-53
2023/12/22 03:15:59;;;;;;;4.80;1.00;;;;;;;;;;5055116;28;20174;-57
2023/12/22 03:18:25;;;;;;;2.23;0.97;;;;;;;;;;5055674;28;20205;-57
2023/12/22 03:20:51;;;;;;;6.37;0.77;;;;;;;;;;5055189;28;20263;-55
2023/12/22 03:23:18;;;;;;;3.00;1.40;;;;;;;;;;5054265;28;20174;-52
2023/12/22 03:25:44;;;;;;;3.70;0.77;;;;;;;;;;5054203;28;20198;-54
2023/12/22 03:28:10;;;;;;;6.80;0.70;;;;;;;;;;5054874;28;20280;-55
2023/12/22 03:30:37;;;;;;;3.83;0.90;;;;;;;;;;5055557;28;20169;-55
2023/12/22 03:33:04;;;;;;;1.60;0.60;;;;;;;;;;5053793;28;20734;-57
2023/12/22 03:35:31;;;;;;;1.37;0.80;;;;;;;;;;5054717;28;20527;-52
2023/12/22 03:37:58;;;;;;;1.23;0.77;;;;;;;;;;5088187;28;20220;-54
2023/12/22 03:40:24;;;;;;;1.77;0.70;;;;;;;;;;5078775;28;20524;-54
2023/12/22 03:42:50;;;;;;;4.17;0.80;;;;;;;;;;5078518;28;20172;-56
2023/12/22 03:45:16;;;;;;;2.77;0.80;;;;;;;;;;5079088;28;20259;-56
2023/12/22 03:47:42;;;;;;;4.80;0.60;;;;;;;;;;5078194;28;20259;-53
2023/12/22 03:50:09;;;;;;;4.03;0.80;;;;;;;;;;5095535;28;20650;-56
2023/12/22 03:52:36;;;;;;;3.93;0.50;;;;;;;;;;5077395;28;20176;-54
2023/12/22 03:55:02;;;;;;;5.17;1.27;;;;;;;;;;5095825;28;20199;-55
2023/12/22 03:57:28;;;;;;;6.93;1.10;;;;;;;;;;5077800;28;20179;-52
2023/12/22 03:59:54;;;;;;;3.10;1.30;;;;;;;;;;5075695;28;20211;-55
2023/12/22 04:02:21;;;;;;;3.63;1.00;;;;;;;;;;5094481;28;20233;-56
2023/12/22 04:04:47;;;;;;;6.47;1.23;;;;;;;;;;5077336;28;20168;-56
2023/12/22 04:07:13;;;;;;;7.00;1.70;;;;;;;;;;5077341;28;20183;-57
2023/12/22 04:09:39;;;;;;;9.50;1.60;;;;;;;;;;5077063;28;20176;-57
2023/12/22 04:12:05;;;;;;;10.27;2.17;;;;;;;;;;5093865;28;20494;-54
2023/12/22 04:14:31;;;;;;;6.17;1.43;;;;;;;;;;5077027;28;20337;-56
2023/12/22 04:16:57;;;;;;;8.57;1.80;;;;;;;;;;5079761;28;20183;-57
2023/12/22 04:19:23;;;;;;;6.47;1.60;;;;;;;;;;5077378;28;20199;-57
2023/12/22 04:21:49;;;;;;;7.23;1.80;;;;;;;;;;5076876;28;20267;-55
2023/12/22 04:24:15;;;;;;;5.73;1.43;;;;;;;;;;5076185;28;20336;-55
2023/12/22 04:26:41;;;;;;;10.50;2.37;;;;;;;;;;5094297;28;20240;-57
2023/12/22 04:29:07;;;;;;;6.67;2.40;;;;;;;;;;5077606;28;20271;-55
2023/12/22 04:31:33;;;;;;;9.53;2.63;;;;;;;;;;5077503;28;20300;-56
2023/12/22 04:33:59;;;;;;;10.03;2.27;;;;;;;;;;5077642;28;20233;-52
2023/12/22 04:36:26;;;;;;;16.10;3.03;;;;;;;;;;5095314;28;20219;-53
2023/12/22 04:38:52;;;;;;;7.37;1.83;;;;;;;;;;5076789;28;20220;-56
2023/12/22 04:41:18;;;;;;;14.53;4.33;;;;;;;;;;5077205;28;20456;-52
2023/12/22 04:43:44;;;;;;;7.20;1.50;;;;;;;;;;5077185;28;20537;-56
2023/12/22 04:46:10;;;;;;;18.87;2.60;;;;;;;;;;5077519;28;20168;-56
2023/12/22 04:48:38;;;;;;;12.27;2.07;;;;;;;;;;5077528;28;20179;-53
2023/12/22 04:51:04;;;;;;;7.40;1.43;;;;;;;;;;5077308;28;20176;-54
2023/12/22 04:53:31;;;;;;;8.67;2.13;;;;;;;;;;5077022;28;20206;-55
2023/12/22 04:55:57;;;;;;;9.10;1.83;;;;;;;;;;5077168;28;20632;-53
2023/12/22 04:58:24;;;;;;;9.33;1.63;;;;;;;;;;5076574;28;20208;-56
2023/12/22 05:00:52;;;;;;;15.03;2.00;;;;;;;;;;5076192;28;20164;-57
2023/12/22 05:03:19;;;;;;;8.60;2.53;;;;;;;;;;5075807;28;20228;-54
2023/12/22 05:05:45;;;;;;;14.43;2.07;;;;;;;;;;5079496;28;20672;-53
2023/12/22 05:08:12;;;;;;;10.97;2.33;;;;;;;;;;5079634;28;20477;-54
2023/12/22 05:10:38;;;;;;;7.83;1.60;;;;;;;;;;5079343;28;20176;-56
2023/12/22 05:13:04;;;;;;;7.83;2.20;;;;;;;;;;5080073;28;20198;-53
2023/12/22 05:15:30;;;;;;;6.53;1.80;;;;;;;;;;5098019;28;20164;-57
2023/12/22 05:17:56;;;;;;;9.90;2.17;;;;;;;;;;5081208;28;20263;-57
2023/12/22 05:20:22;;;;;;;8.83;2.43;;;;;;;;;;5081333;28;20192;-55
2023/12/22 05:22:47;;;;;;;5.50;1.73;;;;;;;;;;5081099;28;20172;-57
2023/12/22 05:25:14;;;;;;;6.67;1.57;;;;;;;;;;5080689;28;20168;-57
2023/12/22 05:27:42;;;;;;;10.53;2.13;;;;;;;;;;5080309;28;20267;-54
2023/12/22 05:30:09;;;;;;;7.87;1.87;;;;;;;;;;5098539;28;20175;-56
2023/12/22 05:32:35;;;;;;;10.97;1.50;;;;;;;;;;5080167;28;20210;-54
2023/12/22 05:35:01;;;;;;;4.77;1.10;;;;;;;;;;5080799;28;20208;-57
2023/12/22 05:37:27;;;;;;;10.83;1.93;;;;;;;;;;5096923;28;20258;-55
2023/12/22 05:39:55;;;;;;;6.93;1.40;;;;;;;;;;5079295;28;20222;-57
2023/12/22 05:42:23;;;;;;;4.70;1.73;;;;;;;;;;5095343;28;20222;-57
2023/12/22 05:44:50;;;;;;;11.43;1.53;;;;;;;;;;5076406;28;20179;-56
2023/12/22 05:47:17;;;;;;;7.63;1.43;;;;;;;;;;5074400;28;20255;-53
2023/12/22 05:49:43;;;;;;;9.10;1.53;;;;;;;;;;5075997;28;20546;-55
2023/12/22 05:52:10;;;;;;;8.10;1.50;;;;;;;;;;5076611;28;20180;-52
2023/12/22 05:54:37;;;;;;;10.50;1.93;;;;;;;;;;5094047;28;20504;-54
2023/12/22 05:57:05;;;;;;;6.03;2.20;;;;;;;;;;5074483;28;20183;-57
2023/12/22 05:59:32;;;;;;;7.53;1.50;;;;;;;;;;5075632;28;20242;-53
2023/12/22 06:01:59;;;;;;;6.03;2.20;;;;;;;;;;5094880;28;20446;-56
2023/12/22 06:04:25;;;;;;;5.93;1.33;;;;;;;;;;5094750;28;20422;-55
2023/12/22 06:06:52;;;;;;;7.80;1.10;;;;;;;;;;5077145;28;20646;-57
2023/12/22 06:09:20;;;;;;;6.03;1.50;;;;;;;;;;5076293;28;20275;-57
2023/12/22 06:11:46;;;;;;;8.87;1.30;;;;;;;;;;5093397;28;20187;-58
2023/12/22 06:14:12;;;;;;;5.33;1.03;;;;;;;;;;5076399;28;20180;-56
2023/12/22 06:16:38;;;;;;;9.33;1.20;;;;;;;;;;5079745;28;20172;-57
2023/12/22 06:19:04;;;;;;;10.67;1.33;;;;;;;;;;5079821;28;20231;-58
2023/12/22 06:21:30;;;;;;;11.10;1.77;;;;;;;;;;5079438;28;20456;-57
2023/12/22 06:23:56;;;;;;;8.20;1.73;;;;;;;;;;5077620;28;20176;-55
2023/12/22 06:26:23;;;;;;;10.53;2.33;;;;;;;;;;5097715;28;20174;-56
2023/12/22 06:28:49;;;;;;;5.97;1.30;;;;;;;;;;5078438;28;20176;-57
2023/12/22 06:31:20;;;;;;;13.20;1.97;;;;;;;;;;5079691;28;20594;-58
2023/12/22 06:33:47;;;;;;;10.23;2.40;;;;;;;;;;5080228;28;20172;-57
2023/12/22 06:36:20;;;;;;;6.80;1.70;;;;;;;;;;5077675;28;20183;-57
2023/12/22 06:38:46;;;;;;;4.20;1.17;;;;;;;;;;5078644;28;20232;-56
2023/12/22 06:41:23;;;;;;;12.57;1.90;;;;;;;;;;5077380;28;20179;-58
2023/12/22 06:43:49;;;;;;;11.50;1.80;;;;;;;;;;5094570;28;20752;-57
2023/12/22 06:46:18;;;;;;;13.13;2.73;;;;;;;;;;5078535;28;20172;-58
2023/12/22 06:48:44;;;;;;;8.00;1.63;;;;;;;;;;5095648;28;20258;-58
2023/12/22 06:51:19;;;;;;;11.30;3.17;;;;;;;;;;5096613;28;20168;-58
2023/12/22 06:53:46;;;;;;;16.33;2.60;;;;;;;;;;5095284;28;20204;-54
2023/12/22 06:56:19;;;;;;;12.80;2.17;;;;;;;;;;5078551;28;20171;-58
2023/12/22 06:58:48;;;;;;;14.80;3.43;;;;;;;;;;5079589;28;20219;-57
2023/12/22 07:01:21;;;;;;;14.30;2.80;;;;;;;;;;5078835;28;20569;-53
2023/12/22 07:03:48;;;;;;;10.70;3.77;;;;;;;;;;5078535;28;20176;-57
2023/12/22 07:06:17;;;;;;;10.73;2.43;;;;;;;;;;5094925;28;20682;-57
2023/12/22 07:08:57;;;;;;;20.80;3.97;;;;;;;;;;5076999;28;20207;-57
2023/12/22 07:11:23;;;;;;;23.13;3.93;;;;;;;;;;5077760;28;20186;-56
2023/12/22 07:13:49;;;;;;;22.00;4.23;;;;;;;;;;5096869;28;20184;-56
2023/12/22 07:16:15;;;;;;;19.67;3.80;;;;;;;;;;5079359;28;20259;-58
2023/12/22 07:18:41;;;;;;;17.80;3.30;;;;;;;;;;5079599;28;20192;-57
2023/12/22 07:21:08;;;;;;;15.07;2.93;;;;;;;;;;5096832;28;20472;-55
2023/12/22 07:23:34;;;;;;;16.33;3.93;;;;;;;;;;5079851;28;20552;-55
2023/12/22 07:26:00;;;;;;;20.00;3.30;;;;;;;;;;5078345;28;20186;-56
2023/12/22 07:28:26;;;;;;;19.20;3.60;;;;;;;;;;5076942;28;20176;-55
2023/12/22 07:30:53;;;;;;;21.97;3.67;;;;;;;;;;5078886;28;20363;-56
2023/12/22 07:33:19;;;;;;;17.33;3.50;;;;;;;;;;5095334;28;20222;-52
2023/12/22 07:35:45;;;;;;;16.30;4.20;;;;;;;;;;5075528;28;20176;-56
2023/12/22 07:38:11;;;;;;;23.37;5.23;;;;;;;;;;5094091;28;20611;-57
2023/12/22 07:40:37;;;;;;;14.00;3.63;;;;;;;;;;5077633;28;20182;-58
2023/12/22 07:43:03;;;;;;;15.60;3.33;;;;;;;;;;5072629;28;20176;-57
2023/12/22 07:45:29;;;;;;;21.07;4.73;;;;;;;;;;5072268;28;20176;-57
2023/12/22 07:47:56;;;;;;;13.87;3.37;;;;;;;;;;5073556;28;20390;-53
2023/12/22 07:50:23;;;;;;;15.10;3.77;;;;;;;;;;5074070;28;20627;-56
2023/12/22 07:52:50;;;;;;;20.83;3.87;;;;;;;;;;5073058;28;20171;-56
2023/12/22 07:55:16;;;;;;;19.13;3.50;;;;;;;;;;5072779;28;20264;-57
2023/12/22 07:57:42;;;;;;;20.23;4.37;;;;;;;;;;5072828;28;20176;-57
2023/12/22 08:00:11;;;;;;;15.57;3.70;;;;;;;;;;5071545;28;20507;-56
2023/12/22 08:02:37;;;;;;;13.60;3.17;;;;;;;;;;5070197;28;20170;-54
2023/12/22 08:05:04;;;;;;;18.70;3.20;;;;;;;;;;5068345;28;20168;-53
2023/12/22 08:07:30;;;;;;;14.40;3.90;;;;;;;;;;5068650;28;20344;-54
2023/12/22 08:09:56;;;;;;;11.27;2.73;;;;;;;;;;5066333;28;20210;-57
2023/12/22 08:12:23;;;;;;;12.33;3.00;;;;;;;;;;5083821;28;20168;-53
2023/12/22 08:14:49;;;;;;;11.97;2.27;;;;;;;;;;5085139;28;20203;-54
2023/12/22 08:17:15;;;;;;;6.87;2.00;;;;;;;;;;5074244;28;20172;-55
2023/12/22 08:19:44;;;;;;;7.67;1.30;;;;;;;;;;5092083;28;20200;-54
2023/12/22 08:22:12;;;;;;;13.03;1.70;;;;;;;;;;5075280;28;20168;-56
2023/12/22 08:24:41;;;;;;;6.27;1.43;;;;;;;;;;5076130;28;20172;-52
2023/12/22 08:27:08;;;;;;;9.87;1.80;;;;;;;;;;5076324;28;20184;-56
2023/12/22 08:29:34;;;;;;;7.50;1.47;;;;;;;;;;5076549;28;20211;-54
2023/12/22 08:32:00;;;;;;;7.00;1.63;;;;;;;;;;5075000;28;20655;-54
2023/12/22 08:34:28;;;;;;;7.00;2.20;;;;;;;;;;5074039;28;20207;-55
2023/12/22 08:36:54;;;;;;;9.40;1.93;;;;;;;;;;5065601;28;20232;-56
2023/12/22 08:39:20;;;;;;;4.93;1.20;;;;;;;;;;5052793;28;20314;-56
2023/12/22 08:41:46;;;;;;;11.50;2.43;;;;;;;;;;5054630;28;20561;-57
2023/12/22 08:44:14;;;;;;;11.47;1.67;;;;;;;;;;5055535;28;20174;-57
2023/12/22 08:46:40;;;;;;;8.37;1.93;;;;;;;;;;5054807;28;20541;-56
2023/12/22 08:49:07;;;;;;;11.20;2.60;;;;;;;;;;5054933;28;20188;-57
2023/12/22 08:51:35;;;;;;;9.97;2.73;;;;;;;;;;5055048;28;20173;-55
2023/12/22 08:54:01;;;;;;;12.03;2.20;;;;;;;;;;5055604;28;20553;-57
2023/12/22 08:56:27;;;;;;;8.77;2.57;;;;;;;;;;5057259;28;20212;-56
2023/12/22 08:58:54;;;;;;;12.93;3.27;;;;;;;;;;5055277;28;20248;-57
2023/12/22 09:01:24;;;;;;;12.30;2.90;;;;;;;;;;5055660;28;20170;-55
2023/12/22 09:03:50;;;;;;;10.40;1.87;;;;;;;;;;5039521;28;20724;-52
2023/12/22 09:06:16;;;;;;;6.27;2.03;;;;;;;;;;5056032;28;20169;-55
2023/12/22 09:08:44;;;;;;;9.60;2.03;;;;;;;;;;5055514;28;20636;-55
2023/12/22 09:11:17;;;;;;;8.90;1.90;;;;;;;;;;5055881;28;20201;-54
2023/12/22 09:13:43;;;;;;;7.93;2.03;;;;;;;;;;5055831;28;20185;-52
2023/12/22 09:16:11;;;;;;;9.13;1.60;;;;;;;;;;5055297;28;20469;-57
2023/12/22 09:18:44;;;;;;;8.40;1.43;;;;;;;;;;5037709;28;20209;-54
2023/12/22 09:21:11;;;;;;;19.30;2.50;;;;;;;;;;5054106;28;20173;-55
2023/12/22 09:23:37;;;;;;;10.73;2.70;;;;;;;;;;5054702;28;20260;-57
2023/12/22 09:26:04;;;;;;;8.60;2.40;;;;;;;;;;5054811;28;20216;-55
2023/12/22 09:28:31;;;;;;;14.87;2.33;;;;;;;;;;5055827;28;20177;-56
2023/12/22 09:30:57;;;;;;;7.67;1.50;;;;;;;;;;5054870;28;20177;-57
2023/12/22 09:33:24;;;;;;;8.53;2.83;;;;;;;;;;5053377;28;20184;-53
2023/12/22 09:35:51;;;;;;;13.80;2.30;;;;;;;;;;5052834;28;20189;-57
2023/12/22 09:38:17;;;;;;;6.90;2.07;;;;;;;;;;5050894;28;20221;-56
2023/12/22 09:40:43;;;;;;;8.47;2.13;;;;;;;;;;5052305;28;20537;-54
2023/12/22 09:43:10;;;;;;;12.07;2.07;;;;;;;;;;5052447;28;20211;-57
2023/12/22 09:45:37;;;;;;;11.30;2.27;;;;;;;;;;5050970;28;20261;-53
2023/12/22 09:48:03;;;;;;;8.37;2.27;;;;;;;;;;5050805;28;20403;-53
2023/12/22 09:50:29;;;;;;;6.10;1.77;;;;;;;;;;5049916;28;20173;-55
2023/12/22 09:52:55;;;;;;;12.73;2.03;;;;;;;;;;5049741;28;20196;-56
2023/12/22 09:55:26;;;;;;;16.03;2.33;;;;;;;;;;5048895;28;20169;-54
2023/12/22 09:57:53;;;;;;;15.83;2.47;;;;;;;;;;5050145;28;20173;-55
2023/12/22 10:00:19;;;;;;;11.37;2.43;;;;;;;;;;5050694;28;20732;-54
2023/12/22 10:02:46;;;;;;;4.37;1.47;;;;;;;;;;5050202;28;20248;-52
2023/12/22 10:05:15;;;;;;;9.63;2.63;;;;;;;;;;5051630;28;20581;-56
2023/12/22 10:07:44;;;;;;;13.80;3.13;;;;;;;;;;5048739;28;20478;-54
2023/12/22 10:10:10;;;;;;;6.03;3.03;;;;;;;;;;5050386;28;20208;-52
2023/12/22 10:12:36;;;;;;;16.43;3.10;;;;;;;;;;5049794;28;20182;-56
2023/12/22 10:15:03;;;;;;;13.17;2.63;;;;;;;;;;5047392;28;20170;-51
2023/12/22 10:17:29;;;;;;;11.93;2.47;;;;;;;;;;5044180;28;20385;-56
2023/12/22 10:19:55;;;;;;;18.50;3.20;;;;;;;;;;5045199;28;20208;-55
2023/12/22 10:22:23;;;;;;;8.27;2.30;;;;;;;;;;5046543;28;20165;-53
2023/12/22 10:24:52;;;;;;;17.47;2.80;;;;;;;;;;5043246;28;20170;-54
2023/12/22 10:27:22;;;;;;;10.63;2.40;;;;;;;;;;5042666;28;20538;-56
2023/12/22 10:29:49;;;;;;;15.23;2.77;;;;;;;;;;5044012;28;20299;-53
2023/12/22 10:32:15;;;;;;;10.13;3.20;;;;;;;;;;5044107;28;20173;-56
2023/12/22 10:34:42;;;;;;;15.23;3.00;;;;;;;;;;5041366;28;20454;-56
2023/12/22 10:37:08;;;;;;;8.57;2.73;;;;;;;;;;5043599;28;20375;-54
2023/12/22 10:39:37;;;;;;;15.53;3.23;;;;;;;;;;5043478;28;20316;-54
2023/12/22 10:42:04;;;;;;;14.20;3.30;;;;;;;;;;5046688;28;20546;-56
2023/12/22 10:44:30;;;;;;;13.17;3.10;;;;;;;;;;5045652;28;20272;-55
2023/12/22 10:46:57;;;;;;;10.43;2.50;;;;;;;;;;5042829;28;20165;-57
2023/12/22 10:49:23;;;;;;;16.57;3.07;;;;;;;;;;5041416;28;20493;-57
2023/12/22 10:51:49;;;;;;;8.80;2.90;;;;;;;;;;5043293;28;20173;-56
2023/12/22 10:54:16;;;;;;;7.97;1.97;;;;;;;;;;5042998;28;20442;-55
2023/12/22 10:56:42;;;;;;;11.23;2.40;;;;;;;;;;5042844;28;20240;-55
2023/12/22 10:59:09;;;;;;;9.27;2.20;;;;;;;;;;5042110;28;20197;-54
2023/12/22 11:01:38;;;;;;;11.77;2.43;;;;;;;;;;5040841;28;20184;-56
2023/12/22 11:04:08;;;;;;;10.23;3.27;;;;;;;;;;5041156;28;20537;-54
2023/12/22 11:06:35;;;;;;;7.70;2.30;;;;;;;;;;5042032;28;20197;-54
2023/12/22 11:09:05;;;;;;;9.70;2.00;;;;;;;;;;5039758;28;20231;-57
2023/12/22 11:11:33;;;;;;;11.27;2.27;;;;;;;;;;5046824;28;20173;-55
2023/12/22 11:14:00;;;;;;;12.17;3.17;;;;;;;;;;5047968;28;20269;-57
2023/12/22 11:16:27;;;;;;;14.57;2.80;;;;;;;;;;5045904;28;20180;-57
2023/12/22 11:18:55;;;;;;;11.07;1.90;;;;;;;;;;5048038;28;20247;-57
2023/12/22 11:21:25;;;;;;;16.00;2.50;;;;;;;;;;5047565;28;20839;-55
2023/12/22 11:23:52;;;;;;;5.43;1.93;;;;;;;;;;5044011;28;20181;-53
2023/12/22 11:26:19;;;;;;;9.97;2.53;;;;;;;;;;5038190;28;20169;-54
2023/12/22 11:28:46;;;;;;;9.80;2.37;;;;;;;;;;5041041;28;20511;-57
2023/12/22 11:31:12;;;;;;;8.43;2.07;;;;;;;;;;5041092;28;20317;-57
2023/12/22 11:33:43;;;;;;;9.93;2.00;;;;;;;;;;5040015;28;20211;-54
2023/12/22 11:36:10;;;;;;;8.73;3.03;;;;;;;;;;5038799;28;20299;-51
2023/12/22 11:38:36;;;;;;;20.40;3.47;;;;;;;;;;5059439;28;20447;-55
2023/12/22 11:41:05;;;;;;;15.03;3.23;;;;;;;;;;5059422;28;20569;-57
2023/12/22 11:43:32;;;;;;;7.47;1.93;;;;;;;;;;5058293;28;20498;-54
2023/12/22 11:46:02;;;;;;;9.17;1.90;;;;;;;;;;5059369;28;20452;-57
2023/12/22 11:48:29;;;;;;;7.23;1.67;;;;;;;;;;5060270;28;20180;-54
2023/12/22 11:50:55;;;;;;;8.97;2.37;;;;;;;;;;5059240;28;20242;-56
2023/12/22 11:53:21;;;;;;;15.70;2.53;;;;;;;;;;5062792;28;20722;-55
2023/12/22 11:56:02;;;;;;;11.07;2.60;;;;;;;;;;5064536;28;20192;-54
2023/12/22 11:58:35;;;;;;;9.70;2.03;;;;;;;;;;5065656;28;20501;-56
2023/12/22 12:01:06;;;;;;;10.83;2.27;;;;;;;;;;5064781;28;20175;-57
2023/12/22 12:03:32;;;;;;;10.27;2.33;;;;;;;;;;5065109;28;20173;-54
2023/12/22 12:06:11;;;;;;;8.70;2.13;;;;;;;;;;5064359;28;20173;-53
2023/12/22 12:08:37;;;;;;;15.03;2.73;;;;;;;;;;5065540;28;20547;-55
2023/12/22 12:11:04;;;;;;;14.23;2.83;;;;;;;;;;5065002;28;20557;-55
2023/12/22 12:13:31;;;;;;;11.77;2.83;;;;;;;;;;5064795;28;20165;-58
2023/12/22 12:16:01;;;;;;;8.93;2.17;;;;;;;;;;5066090;28;20455;-57
2023/12/22 12:18:30;;;;;;;9.37;2.60;;;;;;;;;;5064184;28;20179;-51
2023/12/22 12:20:56;;;;;;;8.03;2.20;;;;;;;;;;5065495;28;20204;-56
2023/12/22 12:23:26;;;;;;;9.07;2.23;;;;;;;;;;5063339;28;20456;-52
2023/12/22 12:25:53;;;;;;;19.67;2.70;;;;;;;;;;5064628;28;20172;-55
2023/12/22 12:28:25;;;;;;;11.47;2.87;;;;;;;;;;5064622;28;20172;-54
2023/12/22 12:30:57;;;;;;;12.17;2.30;;;;;;;;;;5064373;28;20169;-51
2023/12/22 12:33:23;;;;;;;11.20;3.20;;;;;;;;;;5065418;28;20232;-52
2023/12/22 12:35:50;;;;;;;10.67;2.77;;;;;;;;;;5065145;28;20165;-54
2023/12/22 12:38:20;;;;;;;12.83;2.63;;;;;;;;;;5046202;28;20840;-55
2023/12/22 12:40:47;;;;;;;12.67;2.60;;;;;;;;;;5043072;28;20201;-55
2023/12/22 12:43:13;;;;;;;15.70;2.40;;;;;;;;;;5043479;28;20166;-51
2023/12/22 12:45:39;;;;;;;8.97;2.47;;;;;;;;;;5042322;28;20176;-54
2023/12/22 12:48:05;;;;;;;8.33;2.67;;;;;;;;;;5038719;28;20334;-55
2023/12/22 12:50:31;;;;;;;10.10;3.07;;;;;;;;;;5038293;28;20346;-51
2023/12/22 12:52:57;;;;;;;12.43;3.07;;;;;;;;;;5040163;28;20441;-55
2023/12/22 12:55:24;;;;;;;9.43;2.80;;;;;;;;;;5042278;28;20177;-54
2023/12/22 12:57:50;;;;;;;11.00;2.60;;;;;;;;;;5042472;28;20186;-54
2023/12/22 13:00:17;;;;;;;13.33;2.57;;;;;;;;;;5042708;28;20655;-53
2023/12/22 13:02:43;;;;;;;7.53;2.43;;;;;;;;;;5042163;28;20381;-51
2023/12/22 13:05:10;;;;;;;11.63;2.40;;;;;;;;;;5042239;28;20170;-55
2023/12/22 13:07:37;;;;;;;12.37;3.03;;;;;;;;;;5043071;28;20173;-53
2023/12/22 13:10:04;;;;;;;10.33;2.23;;;;;;;;;;5040783;28;20184;-57
2023/12/22 13:12:32;;;;;;;12.77;3.50;;;;;;;;;;5040506;28;20224;-55
2023/12/22 13:15:02;;;;;;;16.63;3.27;;;;;;;;;;5038611;28;20188;-56
2023/12/22 13:17:28;;;;;;;12.17;3.40;;;;;;;;;;5039884;28;20420;-52
2023/12/22 13:19:54;;;;;;;9.37;2.70;;;;;;;;;;5037987;28;20205;-53
2023/12/22 13:22:21;;;;;;;11.03;2.63;;;;;;;;;;5038783;28;20449;-55
2023/12/22 13:24:57;;;;;;;12.40;3.27;;;;;;;;;;5039834;28;20352;-54
2023/12/22 13:27:23;;;;;;;16.13;3.47;;;;;;;;;;5042221;28;20413;-54
2023/12/22 13:29:52;;;;;;;14.77;2.87;;;;;;;;;;5043106;28;20204;-54
2023/12/22 13:32:25;;;;;;;16.57;3.17;;;;;;;;;;5043630;28;20165;-53
2023/12/22 13:34:52;;;;;;;13.53;2.73;;;;;;;;;;5041810;28;20239;-56
2023/12/22 13:37:18;;;;;;;15.90;3.23;;;;;;;;;;5042938;28;20521;-53
2023/12/22 13:39:44;;;;;;;11.87;2.47;;;;;;;;;;5041915;28;20229;-56
2023/12/22 13:42:21;;;;;;;19.63;3.20;;;;;;;;;;5043748;28;20169;-55
2023/12/22 13:44:48;;;;;;;9.97;2.37;;;;;;;;;;5039310;28;20165;-54
2023/12/22 13:47:18;;;;;;;11.00;2.13;;;;;;;;;;5041479;28;20166;-53
2023/12/22 13:49:45;;;;;;;14.30;3.23;;;;;;;;;;5041685;28;20344;-55
2023/12/22 13:52:34;;;;;;;12.97;2.77;;;;;;;;;;5042027;28;20211;-55
2023/12/22 13:55:00;;;;;;;10.63;2.47;;;;;;;;;;5041143;28;20557;-55
2023/12/22 13:57:27;;;;;;;13.90;3.30;;;;;;;;;;5042661;28;20486;-54
2023/12/22 13:59:54;;;;;;;10.20;2.83;;;;;;;;;;5044640;28;20216;-54
2023/12/22 14:02:22;;;;;;;9.23;2.17;;;;;;;;;;5046402;28;20436;-57
2023/12/22 14:04:48;;;;;;;9.27;2.73;;;;;;;;;;5046299;28;20235;-54
2023/12/22 14:07:14;;;;;;;8.83;2.23;;;;;;;;;;5013767;28;20423;-51
2023/12/22 14:09:40;;;;;;;10.50;2.90;;;;;;;;;;5016434;28;20705;-55
2023/12/22 14:12:06;;;;;;;17.83;2.40;;;;;;;;;;5013566;28;20487;-54
2023/12/22 14:14:32;;;;;;;16.83;2.50;;;;;;;;;;5006452;28;20174;-56
2023/12/22 14:16:58;;;;;;;8.73;1.70;;;;;;;;;;5007012;28;20175;-56
2023/12/22 14:19:25;;;;;;;12.93;2.40;;;;;;;;;;5004148;28;20207;-52
2023/12/22 14:21:51;;;;;;;9.27;2.40;;;;;;;;;;5001375;28;20182;-56
2023/12/22 14:24:17;;;;;;;6.23;1.90;;;;;;;;;;4999621;28;20214;-57
2023/12/22 14:26:56;;;;;;;12.93;2.43;;;;;;;;;;5000758;28;20226;-55
2023/12/22 14:29:25;;;;;;;12.00;1.93;;;;;;;;;;4999958;28;20170;-54
2023/12/22 14:31:51;;;;;;;9.27;2.13;;;;;;;;;;4998547;28;20272;-57
2023/12/22 14:34:17;;;;;;;12.80;2.70;;;;;;;;;;4999880;28;20249;-57